Terminal Aerodrome Forecast
Issued by NWS

Home | Current Version | Previous Version | Text Only | Print | Product List | Glossary On
Versions: 1 2 3 4 5 6 7 8 9 10 11 12 13 14 15 16 17 18 19 20 21
300
FTUS41 KCAR 091125
TAFHUL
TAF
KHUL 091125Z 0912/1012 36009KT 1SM -SN BR OVC012
     FM091600 02009KT 2SM -SN OVC015
     FM091900 03009KT 5SM -SHSN OVC015
     FM100200 01006KT 6SM -SHSN BR OVC008
     FM100600 35004KT P6SM OVC014
     FM101000 VRB03KT P6SM OVC022=

USA.gov is the U.S. government's official web portal to all federal, state and local government web resources and services.